MMQT

Querétaro Intercontinental Airport

Querétaro, Mexico
TAF MMQT 211620Z 2118/2218 04006KT P6SM SKC BECMG 2120/2121 04012KT FM220200 09006KT P6SM SKC BECMG 2205/2206 00000KT FM221200 21005KT 6SM HZ SCT250
Issued Valid From Valid To
Jan-21 @ 16:20 UTC
(8 hours ago)
Jan-21 @ 18:00 UTC
(6 hours ago)
Jan-22 @ 18:00 UTC
(in 18 hours)
Expired Click to View Jan-21 @ 18:00 to Jan-21 @ 20:00
TAF MMQT 211620Z 2118/2218 04006KT P6SM SKC
Wind Visibility Clouds
40° at 6 knots Greater than 6 miles
  • Clear skies
Becoming Jan-21 @ 20:00 to Jan-22 @ 02:00
BECMG 2120/2121 04012KT
Wind Visibility Clouds
40° at 12 knots Greater than 6 miles
  • Clear skies
From Jan-22 @ 02:00 to Jan-22 @ 05:00
FM220200 09006KT P6SM SKC
Wind Visibility Clouds
90° at 6 knots Greater than 6 miles
  • Clear skies
Becoming Jan-22 @ 05:00 to Jan-22 @ 12:00
BECMG 2205/2206 00000KT
Visibility Clouds
Greater than 6 miles
  • Clear skies
From Jan-22 @ 12:00 to Jan-22 @ 18:00
FM221200 21005KT 6SM HZ SCT250
Wind Visibility Clouds Conditions
210° at 5 knots 6 miles
  • Scattered at 25,000' AGL
  • Haze
TAF MMQT 211620Z 2118/2218 04006KT P6SM SKC BECMG 2120/2121 04012KT FM220200 09006KT P6SM SKC BECMG 2205/2206 00000KT FM221200 21005KT 6SM HZ SCT250
Issued Jan-21 @ 16:20 UTC
(8 hours ago)
Valid From Jan-21 @ 18:00 UTC
(6 hours ago)
Valid To Jan-22 @ 18:00 UTC
(in 18 hours)
Jan-21 @ 18:00 - Jan-21 @ 20:00
Wind Visibility
40° at 6 knots Greater than 6 miles
Clouds
  • Clear skies
Becoming Jan-21 @ 20:00 - Jan-22 @ 02:00
Wind Visibility
40° at 12 knots Greater than 6 miles
Clouds
  • Clear skies
From Jan-22 @ 02:00 - Jan-22 @ 05:00
Wind Visibility
90° at 6 knots Greater than 6 miles
Clouds
  • Clear skies
Becoming Jan-22 @ 05:00 - Jan-22 @ 12:00
Clouds
  • Clear skies
From Jan-22 @ 12:00 - Jan-22 @ 18:00
Wind Visibility
210° at 5 knots 6 miles
Clouds
  • Scattered at 25,000' AGL
Conditions
  • Haze